Time;durP1;ratioP1;P1;durP2;ratioP2;P2;SDS_P1;SDS_P2;PMS_P1;PMS_P2;Temp;Humidity;BMP_temperature;BMP_pressure;BME280_temperature;BME280_humidity;BME280_pressure;Samples;Min_cycle;Max_cycle;Signal;HPM_P1;HPM_P2
2021/06/01 00:00:29;;;;;;;4.90;4.40;;;18.30;66.90;;;;;;6308995;22;20478;-76
2021/06/01 00:02:55;;;;;;;4.80;3.92;;;18.30;66.90;;;;;;6319589;22;20007;-77
2021/06/01 00:05:21;;;;;;;4.57;4.18;;;18.30;66.90;;;;;;6319529;22;20038;-75
2021/06/01 00:07:47;;;;;;;6.03;4.05;;;18.30;66.90;;;;;;6322394;22;20007;-75
2021/06/01 00:10:14;;;;;;;4.95;4.10;;;18.30;66.90;;;;;;6321690;22;20012;-75
2021/06/01 00:12:40;;;;;;;4.30;3.88;;;18.30;66.90;;;;;;6322135;22;20011;-76
2021/06/01 00:15:06;;;;;;;4.80;4.30;;;18.30;66.80;;;;;;6321570;22;20068;-76
2021/06/01 00:17:33;;;;;;;4.05;3.67;;;18.20;66.80;;;;;;6322027;22;20011;-76
2021/06/01 00:19:59;;;;;;;4.40;4.00;;;18.20;66.80;;;;;;6311246;22;20046;-77
2021/06/01 00:22:24;;;;;;;4.97;4.20;;;18.30;66.80;;;;;;6312006;22;20015;-75
2021/06/01 00:24:50;;;;;;;4.55;3.88;;;18.30;66.80;;;;;;6284467;22;20094;-76
2021/06/01 00:27:16;;;;;;;4.32;3.92;;;18.20;66.70;;;;;;6311578;22;20008;-76
2021/06/01 00:29:42;;;;;;;5.47;3.78;;;18.20;66.70;;;;;;6322187;22;20012;-76
2021/06/01 00:32:08;;;;;;;4.97;4.40;;;18.20;66.80;;;;;;6311402;22;20343;-76
2021/06/01 00:34:34;;;;;;;4.72;4.00;;;18.20;66.70;;;;;;6321305;22;20011;-75
2021/06/01 00:37:00;;;;;;;4.47;4.07;;;18.20;66.70;;;;;;6321376;22;20011;-77
2021/06/01 00:39:26;;;;;;;6.03;4.05;;;18.20;66.70;;;;;;6321442;22;20007;-76
2021/06/01 00:41:52;;;;;;;6.78;3.67;;;18.20;66.70;;;;;;6321371;22;20416;-75
2021/06/01 00:44:18;;;;;;;4.40;4.00;;;18.20;66.70;;;;;;6321603;22;20400;-75
2021/06/01 00:46:44;;;;;;;4.30;3.90;;;18.20;66.70;;;;;;6321308;22;20007;-77
2021/06/01 00:49:10;;;;;;;4.95;4.22;;;18.20;66.70;;;;;;6310539;22;20466;-76
2021/06/01 00:51:35;;;;;;;4.60;4.13;;;18.20;66.70;;;;;;6322023;22;20025;-76
2021/06/01 00:54:05;;;;;;;4.40;4.00;;;18.20;66.60;;;;;;6321365;22;20011;-77
2021/06/01 00:56:32;;;;;;;4.32;3.92;;;18.20;66.70;;;;;;6321145;22;20035;-76
2021/06/01 00:58:58;;;;;;;4.35;3.92;;;18.20;66.60;;;;;;6321384;22;20011;-76
2021/06/01 01:01:24;;;;;;;4.20;3.80;;;18.20;66.60;;;;;;6321130;22;20078;-77
2021/06/01 01:03:52;;;;;;;4.78;3.97;;;18.20;66.60;;;;;;6321164;22;20035;-76
2021/06/01 01:06:37;;;;;;;4.45;3.90;;;18.20;66.60;;;;;;6321684;22;20011;-76
2021/06/01 01:09:10;;;;;;;4.15;3.75;;;18.10;66.50;;;;;;6320986;22;20026;-76
2021/06/01 01:11:51;;;;;;;4.40;4.00;;;18.10;66.50;;;;;;6310813;22;20007;-76
2021/06/01 01:14:17;;;;;;;4.40;3.97;;;18.20;66.60;;;;;;6320932;22;20040;-75
2021/06/01 01:16:53;;;;;;;4.82;3.92;;;18.20;66.60;;;;;;6321488;22;20057;-75
2021/06/01 01:19:50;;;;;;;4.40;3.97;;;18.10;66.50;;;;;;6311146;22;20023;-75
2021/06/01 01:22:17;;;;;;;4.93;4.28;;;18.20;66.50;;;;;;6300060;22;20019;-77
2021/06/01 01:24:51;;;;;;;4.80;4.13;;;18.20;66.50;;;;;;6310472;22;20312;-75
2021/06/01 01:27:22;;;;;;;4.43;4.00;;;18.20;66.50;;;;;;6310381;22;20015;-76
2021/06/01 01:29:49;;;;;;;5.47;4.07;;;18.10;66.50;;;;;;6310866;22;20277;-76
2021/06/01 01:32:31;;;;;;;4.95;4.45;;;18.10;66.50;;;;;;6320887;22;20056;-77
2021/06/01 01:34:58;;;;;;;4.38;3.97;;;18.10;66.50;;;;;;6321444;22;20007;-75
2021/06/01 01:37:31;;;;;;;4.75;4.30;;;18.10;66.50;;;;;;6310550;22;20041;-75
2021/06/01 01:39:59;;;;;;;5.55;4.03;;;18.10;66.50;;;;;;6321279;22;20031;-77
2021/06/01 01:42:28;;;;;;;5.18;4.20;;;18.10;66.50;;;;;;6320808;22;20296;-75
2021/06/01 01:44:55;;;;;;;4.82;4.35;;;18.10;66.50;;;;;;6320734;22;20041;-77
2021/06/01 01:50:02;;;;;;;5.30;4.28;;;18.10;67.10;;;;;;6314473;22;20057;-76
2021/06/01 01:52:29;;;;;;;4.90;4.43;;;18.10;66.50;;;;;;6321429;22;20011;-76
2021/06/01 01:54:55;;;;;;;4.88;4.35;;;18.10;66.50;;;;;;6310294;22;20022;-75
2021/06/01 01:57:23;;;;;;;5.03;4.43;;;18.10;66.50;;;;;;6320669;22;20022;-77
2021/06/01 01:59:50;;;;;;;4.88;4.18;;;18.10;66.40;;;;;;6309978;22;20494;-75
2021/06/01 02:02:16;;;;;;;4.90;4.30;;;18.10;66.30;;;;;;6310323;22;20017;-77
2021/06/01 02:04:43;;;;;;;5.65;4.57;;;18.10;66.40;;;;;;6320553;22;20019;-76
2021/06/01 02:07:16;;;;;;;4.85;4.32;;;18.10;66.40;;;;;;6310611;22;20409;-76
2021/06/01 02:09:42;;;;;;;5.45;4.80;;;18.10;66.40;;;;;;6320771;22;20012;-76
2021/06/01 02:12:09;;;;;;;4.97;4.50;;;18.10;66.40;;;;;;6320648;22;20384;-76
2021/06/01 02:14:35;;;;;;;4.90;4.40;;;18.10;66.40;;;;;;6320275;22;20038;-76
2021/06/01 02:17:01;;;;;;;5.20;4.45;;;18.10;66.30;;;;;;6293836;22;20019;-77
2021/06/01 02:19:27;;;;;;;4.90;4.40;;;18.10;66.40;;;;;;6320051;22;20288;-75
2021/06/01 02:24:59;;;;;;;5.72;4.72;;;18.10;66.40;;;;;;6309867;22;20011;-75
2021/06/01 02:27:45;;;;;;;4.53;4.00;;;18.00;66.30;;;;;;6320359;22;20409;-77
2021/06/01 02:30:19;;;;;;;4.40;4.00;;;18.00;66.30;;;;;;6320837;22;20011;-76
2021/06/01 02:32:48;;;;;;;5.25;4.35;;;18.00;66.20;;;;;;6320672;22;20326;-76
2021/06/01 02:35:18;;;;;;;4.80;4.30;;;18.00;66.30;;;;;;6320902;22;20011;-75
2021/06/01 02:37:47;;;;;;;5.28;4.53;;;18.00;66.30;;;;;;6319875;22;20015;-76
2021/06/01 02:40:17;;;;;;;5.10;4.60;;;18.00;66.30;;;;;;6320141;22;20019;-76
2021/06/01 02:42:45;;;;;;;6.22;4.50;;;18.00;66.30;;;;;;6310370;22;20117;-76
2021/06/01 02:45:14;;;;;;;5.03;4.53;;;18.00;66.20;;;;;;6310234;22;20347;-76
2021/06/01 02:47:41;;;;;;;5.72;4.25;;;18.00;66.20;;;;;;6320303;22;20011;-75
2021/06/01 02:50:12;;;;;;;5.75;4.72;;;18.00;66.20;;;;;;6309336;22;20408;-77
2021/06/01 02:52:40;;;;;;;6.10;4.65;;;18.00;66.20;;;;;;6320149;22;20007;-76
2021/06/01 02:55:09;;;;;;;5.38;4.68;;;18.00;66.20;;;;;;6320822;22;20017;-76
2021/06/01 02:57:40;;;;;;;5.22;4.70;;;18.00;66.20;;;;;;6309747;22;20015;-76
2021/06/01 03:00:10;;;;;;;5.10;4.60;;;18.00;66.20;;;;;;6320219;22;20023;-75
2021/06/01 03:02:36;;;;;;;4.40;4.00;;;18.00;66.20;;;;;;6319657;22;20015;-75
2021/06/01 03:05:03;;;;;;;5.32;4.63;;;18.00;66.20;;;;;;6310320;22;20093;-76
2021/06/01 03:07:29;;;;;;;5.05;4.10;;;18.00;66.10;;;;;;6320616;22;20011;-75
2021/06/01 03:09:55;;;;;;;4.82;4.35;;;18.00;66.20;;;;;;6320475;22;20015;-75
2021/06/01 03:14:53;;;;;;;5.25;4.63;;;18.00;66.20;;;;;;6309424;22;20015;-75
2021/06/01 03:17:19;;;;;;;5.43;4.72;;;18.00;66.20;;;;;;6309557;22;20015;-77
2021/06/01 03:19:45;;;;;;;5.20;4.68;;;17.90;66.10;;;;;;6310601;22;20011;-77
2021/06/01 03:22:11;;;;;;;4.97;4.22;;;17.90;66.10;;;;;;6320068;22;20312;-77
2021/06/01 03:24:46;;;;;;;4.80;4.32;;;18.00;66.10;;;;;;6310056;22;20011;-76
2021/06/01 03:27:12;;;;;;;5.13;4.57;;;18.00;66.10;;;;;;6292671;22;20346;-75
2021/06/01 03:29:39;;;;;;;5.03;4.53;;;17.90;66.00;;;;;;6320080;22;20018;-75
2021/06/01 03:32:06;;;;;;;5.00;4.07;;;17.90;66.10;;;;;;6319925;22;20091;-77
2021/06/01 03:34:32;;;;;;;4.32;3.92;;;17.90;66.00;;;;;;6319635;22;20428;-76
2021/06/01 03:36:57;;;;;;;5.53;4.68;;;17.90;66.00;;;;;;6320282;22;20041;-76
2021/06/01 03:39:23;;;;;;;5.28;4.60;;;17.90;66.00;;;;;;6309792;22;20019;-76
2021/06/01 03:41:50;;;;;;;5.07;4.50;;;17.90;66.00;;;;;;6322162;22;20031;-77
2021/06/01 03:44:16;;;;;;;4.93;4.45;;;17.90;66.00;;;;;;6322585;22;20019;-76
2021/06/01 03:46:42;;;;;;;5.30;4.50;;;17.90;66.00;;;;;;6322532;22;20027;-77
2021/06/01 03:49:08;;;;;;;5.18;4.68;;;17.90;66.00;;;;;;6319529;22;20015;-75
2021/06/01 03:51:34;;;;;;;6.47;5.28;;;17.90;66.00;;;;;;6322203;22;20011;-76
2021/06/01 03:54:00;;;;;;;4.28;3.85;;;17.90;66.00;;;;;;6311767;22;20022;-76
2021/06/01 03:56:26;;;;;;;4.68;4.18;;;17.90;66.00;;;;;;6311340;22;20011;-75
2021/06/01 03:58:52;;;;;;;5.97;4.50;;;17.90;66.00;;;;;;6321830;22;20011;-76
2021/06/01 04:01:17;;;;;;;5.57;4.35;;;17.90;66.00;;;;;;6322392;22;20086;-75
2021/06/01 04:03:43;;;;;;;5.05;4.53;;;17.90;65.90;;;;;;6321622;22;20014;-75
2021/06/01 04:06:10;;;;;;;5.82;4.78;;;17.90;65.90;;;;;;6321766;22;20007;-77
2021/06/01 04:08:38;;;;;;;5.40;4.65;;;17.90;65.90;;;;;;6321726;22;20007;-75
2021/06/01 04:11:04;;;;;;;4.97;4.30;;;17.90;65.90;;;;;;6322443;22;20048;-76
2021/06/01 04:13:30;;;;;;;5.20;4.70;;;17.90;65.90;;;;;;6294809;22;20014;-76
2021/06/01 04:15:56;;;;;;;5.45;4.60;;;17.90;65.90;;;;;;6294588;22;20400;-76
2021/06/01 04:18:22;;;;;;;4.65;4.20;;;17.90;65.90;;;;;;6322076;22;20499;-75
2021/06/01 04:20:48;;;;;;;5.10;4.60;;;17.90;65.90;;;;;;6322053;22;20027;-77
2021/06/01 04:23:14;;;;;;;4.45;4.05;;;17.90;65.90;;;;;;6321679;22;20011;-75
2021/06/01 04:25:40;;;;;;;4.47;4.03;;;17.90;65.90;;;;;;6284777;22;20003;-75
2021/06/01 04:28:06;;;;;;;5.07;4.57;;;17.90;65.90;;;;;;6317853;22;20030;-75
2021/06/01 04:30:33;;;;;;;4.57;4.18;;;17.90;65.90;;;;;;6311056;22;20015;-75
2021/06/01 04:32:59;;;;;;;4.95;4.45;;;17.90;65.90;;;;;;6322182;22;20015;-75
2021/06/01 04:35:25;;;;;;;4.80;4.25;;;17.90;65.90;;;;;;6321452;22;20313;-75
2021/06/01 04:37:51;;;;;;;4.82;4.30;;;17.80;65.90;;;;;;6322194;22;20011;-75
2021/06/01 04:40:17;;;;;;;5.75;4.18;;;17.90;66.00;;;;;;6320994;22;20445;-75
2021/06/01 04:42:44;;;;;;;6.68;4.45;;;17.90;65.90;;;;;;6295196;22;20034;-74
2021/06/01 04:45:15;;;;;;;5.03;4.28;;;17.80;65.90;;;;;;6321413;22;20041;-77
2021/06/01 04:47:44;;;;;;;4.70;4.18;;;17.80;65.90;;;;;;6322153;22;20034;-76
2021/06/01 04:50:11;;;;;;;4.85;4.13;;;17.80;65.90;;;;;;6310876;22;20050;-77
2021/06/01 04:52:37;;;;;;;4.60;3.80;;;17.80;65.90;;;;;;6321186;22;20018;-76
2021/06/01 04:55:04;;;;;;;4.45;3.97;;;17.80;65.90;;;;;;6311250;22;20400;-75
2021/06/01 04:57:30;;;;;;;4.80;4.38;;;17.80;65.90;;;;;;6321817;22;20315;-77
2021/06/01 04:59:56;;;;;;;4.97;4.45;;;17.80;65.90;;;;;;6321736;22;20022;-76
2021/06/01 05:02:22;;;;;;;4.93;4.00;;;17.80;65.90;;;;;;6321922;22;20015;-76
2021/06/01 05:04:48;;;;;;;4.82;4.35;;;17.80;65.90;;;;;;6321419;22;20082;-76
2021/06/01 05:07:14;;;;;;;4.65;4.25;;;17.80;65.90;;;;;;6310683;22;20027;-77
2021/06/01 05:09:40;;;;;;;4.43;4.03;;;17.90;65.90;;;;;;6321784;22;20039;-75
2021/06/01 05:12:07;;;;;;;5.22;4.05;;;17.80;65.90;;;;;;6321349;22;20415;-76
2021/06/01 05:14:32;;;;;;;4.13;3.72;;;17.90;65.90;;;;;;6321594;22;20007;-76
2021/06/01 05:16:58;;;;;;;4.57;4.18;;;17.90;65.90;;;;;;6294013;22;20022;-76
2021/06/01 05:19:24;;;;;;;4.43;3.85;;;17.80;65.90;;;;;;6321037;22;20361;-76
2021/06/01 05:21:50;;;;;;;4.43;4.00;;;17.90;65.90;;;;;;6321700;22;20086;-76
2021/06/01 05:24:15;;;;;;;3.85;3.40;;;17.80;65.90;;;;;;6321087;22;20007;-76
2021/06/01 05:26:42;;;;;;;4.63;4.03;;;17.80;65.90;;;;;;6320590;22;20011;-76
2021/06/01 05:29:08;;;;;;;4.25;3.78;;;17.90;65.90;;;;;;6294272;22;20069;-76
2021/06/01 05:31:49;;;;;;;4.93;4.07;;;17.90;65.90;;;;;;6320966;22;20033;-77
2021/06/01 05:34:14;;;;;;;5.07;3.83;;;17.90;66.00;;;;;;6320984;22;20027;-76
2021/06/01 05:36:40;;;;;;;4.63;3.88;;;17.90;66.00;;;;;;6321903;22;20045;-75
2021/06/01 05:39:12;;;;;;;5.47;3.67;;;17.90;66.00;;;;;;6310743;22;20015;-75
2021/06/01 05:41:38;;;;;;;4.38;3.97;;;17.90;66.00;;;;;;6321589;22;20014;-76
2021/06/01 05:44:05;;;;;;;3.95;3.58;;;17.90;66.00;;;;;;6305650;22;20011;-76
2021/06/01 05:46:31;;;;;;;4.15;3.65;;;17.90;66.00;;;;;;6310456;22;20007;-75
2021/06/01 05:48:56;;;;;;;4.97;4.15;;;17.90;66.00;;;;;;6319943;22;20285;-75
2021/06/01 05:51:30;;;;;;;4.30;3.75;;;17.90;66.00;;;;;;6310375;22;20011;-75
2021/06/01 05:53:56;;;;;;;;;;;17.90;66.50;;;;;;6321424;22;20019;-75
2021/06/01 05:56:22;;;;;;;4.72;3.92;;;17.90;65.90;;;;;;6320260;22;19915;-76
2021/06/01 05:58:47;;;;;;;6.07;4.00;;;17.90;66.00;;;;;;6320755;22;20432;-76
2021/06/01 06:01:14;;;;;;;3.90;3.45;;;17.90;66.00;;;;;;6294936;22;20034;-76
2021/06/01 06:03:40;;;;;;;4.25;3.90;;;17.90;66.00;;;;;;6309988;22;20015;-77
2021/06/01 06:06:13;;;;;;;4.30;3.90;;;17.90;66.00;;;;;;6293469;22;20396;-76
2021/06/01 06:08:39;;;;;;;3.63;3.33;;;17.90;66.00;;;;;;6284074;22;20022;-76
2021/06/01 06:11:05;;;;;;;4.13;3.63;;;17.90;65.90;;;;;;6320843;22;20015;-76
2021/06/01 06:13:31;;;;;;;4.57;3.78;;;17.90;65.90;;;;;;6320512;22;20011;-76
2021/06/01 06:15:57;;;;;;;4.07;3.60;;;17.90;65.80;;;;;;6320075;22;20261;-77
2021/06/01 06:18:28;;;;;;;4.03;3.33;;;17.90;65.80;;;;;;6319993;22;20065;-75
2021/06/01 06:20:59;;;;;;;4.65;3.40;;;18.00;65.90;;;;;;6320739;22;20015;-76
2021/06/01 06:23:25;;;;;;;4.00;3.60;;;18.00;65.90;;;;;;6310233;22;20090;-74
2021/06/01 06:25:51;;;;;;;3.72;3.42;;;18.00;65.90;;;;;;6320837;22;20025;-76
2021/06/01 06:28:17;;;;;;;3.55;3.25;;;18.10;65.90;;;;;;6310337;22;20094;-75
2021/06/01 06:30:43;;;;;;;3.97;3.58;;;18.00;65.90;;;;;;6320380;22;20021;-75
2021/06/01 06:33:08;;;;;;;4.78;3.28;;;18.10;65.90;;;;;;6320034;22;20018;-75
2021/06/01 06:35:35;;;;;;;3.53;3.22;;;18.10;65.90;;;;;;6310402;22;20011;-75
2021/06/01 06:38:01;;;;;;;4.68;3.33;;;18.10;65.90;;;;;;6320296;22;20012;-76
2021/06/01 06:40:28;;;;;;;3.50;3.20;;;18.10;66.10;;;;;;6320891;22;20011;-75
2021/06/01 06:42:55;;;;;;;4.07;3.60;;;18.10;66.10;;;;;;6309906;22;20011;-76
2021/06/01 06:45:25;;;;;;;4.35;3.30;;;18.10;66.30;;;;;;6320252;22;20069;-76
2021/06/01 06:50:20;;;;;;;3.75;3.45;;;18.10;66.50;;;;;;6310202;22;20039;-76
2021/06/01 06:52:46;;;;;;;3.10;2.80;;;18.20;66.50;;;;;;6320668;22;20011;-76
2021/06/01 06:55:13;;;;;;;4.10;2.78;;;18.20;66.60;;;;;;6310041;22;20007;-76
2021/06/01 06:57:40;;;;;;;3.60;2.85;;;18.20;66.70;;;;;;6309719;22;20019;-76
2021/06/01 07:00:09;;;;;;;3.25;2.95;;;18.20;66.80;;;;;;6310627;22;20011;-77
2021/06/01 07:02:40;;;;;;;3.95;2.70;;;18.20;66.90;;;;;;6309689;22;20022;-75
2021/06/01 07:05:10;;;;;;;3.00;2.80;;;18.20;66.90;;;;;;6310057;22;20439;-77
2021/06/01 07:07:38;;;;;;;3.13;2.83;;;18.20;67.00;;;;;;6293513;22;20034;-75
2021/06/01 07:10:07;;;;;;;3.53;2.65;;;18.20;67.00;;;;;;6310077;22;20292;-75
2021/06/01 07:12:33;;;;;;;4.28;2.97;;;18.20;67.00;;;;;;6320124;22;20014;-75
2021/06/01 07:15:12;;;;;;;2.60;2.38;;;18.30;67.10;;;;;;6320328;22;20015;-75
2021/06/01 07:17:42;;;;;;;3.60;3.15;;;18.30;67.10;;;;;;6322274;22;20015;-76
2021/06/01 07:20:11;;;;;;;2.75;2.55;;;18.30;67.30;;;;;;6322969;22;20011;-75
2021/06/01 07:22:38;;;;;;;3.00;2.70;;;18.30;67.30;;;;;;6312149;22;20300;-76
2021/06/01 07:25:06;;;;;;;3.40;2.85;;;18.30;67.40;;;;;;6322400;22;20011;-76
2021/06/01 07:27:51;;;;;;;3.00;2.67;;;18.30;67.30;;;;;;6290036;22;20101;-76
2021/06/01 07:30:26;;;;;;;3.65;2.83;;;18.40;67.40;;;;;;6311874;22;20424;-75
2021/06/01 07:32:55;;;;;;;3.30;3.00;;;18.40;67.50;;;;;;6311780;22;20019;-75
2021/06/01 07:35:22;;;;;;;3.70;2.97;;;18.40;67.40;;;;;;6311852;22;20038;-76
2021/06/01 07:37:49;;;;;;;2.40;2.20;;;18.40;67.40;;;;;;6312621;22;20015;-75
2021/06/01 07:40:16;;;;;;;2.75;2.47;;;18.40;67.50;;;;;;6311499;22;20011;-77
2021/06/01 07:42:42;;;;;;;3.05;2.60;;;18.40;67.50;;;;;;6321949;22;20086;-76
2021/06/01 07:45:08;;;;;;;2.70;2.50;;;18.40;67.50;;;;;;6259261;22;20046;-76
2021/06/01 07:47:35;;;;;;;2.58;2.10;;;18.50;67.60;;;;;;6321913;22;20019;-76
2021/06/01 07:50:01;;;;;;;2.80;2.53;;;18.50;67.60;;;;;;6319079;22;20077;-75
2021/06/01 07:52:27;;;;;;;3.10;2.33;;;18.50;67.60;;;;;;6321513;22;20073;-75
2021/06/01 07:54:53;;;;;;;2.80;2.50;;;18.50;67.70;;;;;;6321755;22;20475;-75
2021/06/01 07:57:23;;;;;;;2.70;2.50;;;18.50;67.70;;;;;;6321569;22;20465;-76
2021/06/01 07:59:49;;;;;;;3.20;2.60;;;18.50;67.60;;;;;;6321930;22;20007;-76
2021/06/01 08:02:18;;;;;;;2.40;2.20;;;18.50;67.70;;;;;;6311768;22;20020;-76
2021/06/01 08:04:43;;;;;;;2.50;2.30;;;18.60;67.70;;;;;;6321426;22;20022;-76
2021/06/01 08:07:11;;;;;;;2.97;2.33;;;18.60;67.70;;;;;;6321234;22;20011;-76
2021/06/01 08:09:37;;;;;;;2.80;2.60;;;18.60;67.70;;;;;;6321434;22;20471;-77
2021/06/01 08:12:04;;;;;;;2.90;2.50;;;18.60;67.70;;;;;;6311175;22;20022;-78
2021/06/01 08:14:42;;;;;;;2.97;2.33;;;18.60;67.70;;;;;;6312266;22;20019;-76
2021/06/01 08:17:13;;;;;;;2.42;2.22;;;18.60;67.70;;;;;;6321384;22;20011;-77
2021/06/01 08:19:43;;;;;;;2.50;2.28;;;18.70;67.80;;;;;;6321491;22;20018;-75
2021/06/01 08:24:38;;;;;;;2.75;2.42;;;18.70;67.70;;;;;;6311195;22;20015;-77
2021/06/01 08:27:04;;;;;;;3.58;2.55;;;18.70;67.80;;;;;;6294019;22;20007;-75
2021/06/01 08:29:30;;;;;;;2.35;2.15;;;18.70;67.80;;;;;;6322560;22;20015;-77
2021/06/01 08:31:58;;;;;;;2.78;2.28;;;18.70;67.70;;;;;;6321581;22;20388;-75
2021/06/01 08:34:24;;;;;;;4.95;2.08;;;18.70;67.70;;;;;;6310972;22;20049;-76
2021/06/01 08:36:51;;;;;;;2.40;2.15;;;18.80;67.60;;;;;;6321700;22;20076;-75
2021/06/01 08:39:23;;;;;;;2.33;2.00;;;18.80;67.60;;;;;;6321115;22;20034;-76
2021/06/01 08:41:49;;;;;;;2.58;2.15;;;18.80;67.60;;;;;;6322194;22;20090;-76
2021/06/01 08:44:16;;;;;;;2.60;2.40;;;18.80;67.60;;;;;;6321274;22;20011;-76
2021/06/01 08:46:43;;;;;;;2.83;2.42;;;18.80;67.70;;;;;;6310866;22;20412;-76
2021/06/01 08:49:17;;;;;;;3.50;2.28;;;18.80;67.70;;;;;;6321744;22;20046;-77
2021/06/01 08:51:43;;;;;;;2.38;2.17;;;18.80;67.60;;;;;;6310557;22;20454;-78
2021/06/01 08:54:10;;;;;;;2.10;1.88;;;18.80;67.50;;;;;;6322591;22;20034;-77
2021/06/01 08:56:36;;;;;;;2.50;2.05;;;18.90;67.60;;;;;;6321327;22;20350;-77
2021/06/01 08:59:02;;;;;;;3.22;2.25;;;18.90;67.50;;;;;;6311572;22;20015;-76
2021/06/01 09:01:28;;;;;;;3.38;2.30;;;18.90;67.60;;;;;;6321517;22;20014;-77
2021/06/01 09:03:57;;;;;;;2.40;2.10;;;18.90;67.50;;;;;;6321242;22;20289;-74
2021/06/01 09:06:35;;;;;;;2.00;1.80;;;18.90;67.50;;;;;;6321617;22;20086;-77
2021/06/01 09:22:33;;;;;;;2.13;1.92;;;19.00;67.50;;;;;;6321641;22;20017;-75
2021/06/01 09:25:31;;;;;;;2.30;2.10;;;19.00;67.40;;;;;;6310862;22;20008;-76
2021/06/01 09:27:57;;;;;;;3.55;2.28;;;19.00;67.30;;;;;;6321126;22;20041;-75
2021/06/01 09:30:45;;;;;;;2.72;1.90;;;19.00;67.30;;;;;;6320957;22;20007;-75
2021/06/01 09:33:14;;;;;;;1.95;1.75;;;19.10;67.40;;;;;;6321001;22;20042;-75
2021/06/01 09:35:44;;;;;;;2.65;1.90;;;19.10;67.30;;;;;;6320857;22;20038;-76
2021/06/01 09:38:10;;;;;;;1.95;1.75;;;19.10;67.30;;;;;;6321090;22;20466;-75
2021/06/01 09:40:37;;;;;;;2.05;1.85;;;19.10;67.30;;;;;;6321047;22;20014;-76
2021/06/01 09:43:08;;;;;;;2.47;2.10;;;19.10;67.20;;;;;;6320822;22;20011;-77
2021/06/01 09:45:33;;;;;;;2.33;1.60;;;19.10;67.30;;;;;;6320771;22;20015;-76
2021/06/01 09:48:04;;;;;;;1.77;1.55;;;19.10;67.30;;;;;;6321597;22;20064;-76
2021/06/01 09:53:32;;;;;;;1.77;1.63;;;19.10;67.20;;;;;;6321025;22;20069;-76
2021/06/01 09:55:58;;;;;;;2.10;1.90;;;19.10;67.10;;;;;;6320580;22;20011;-77
2021/06/01 09:58:29;;;;;;;3.00;1.80;;;19.10;67.10;;;;;;6293519;22;20015;-77
2021/06/01 10:00:57;;;;;;;1.88;1.75;;;19.10;67.10;;;;;;6320660;22;20034;-77
2021/06/01 10:03:26;;;;;;;2.05;1.80;;;19.20;67.10;;;;;;6310545;22;20033;-75
2021/06/01 10:05:55;;;;;;;1.73;1.20;;;19.20;67.10;;;;;;6321253;22;20022;-76
2021/06/01 10:08:24;;;;;;;2.05;1.83;;;19.20;67.00;;;;;;6320122;22;20038;-77
2021/06/01 10:11:00;;;;;;;2.65;1.52;;;19.20;67.00;;;;;;6283207;22;20011;-76
2021/06/01 10:13:31;;;;;;;1.98;1.60;;;19.20;67.00;;;;;;6310487;22;20283;-76
2021/06/01 10:16:02;;;;;;;2.30;1.60;;;19.20;66.90;;;;;;6320102;22;20332;-76
2021/06/01 10:18:29;;;;;;;1.90;1.67;;;19.20;66.70;;;;;;6320523;22;20007;-76
2021/06/01 10:20:57;;;;;;;1.83;1.60;;;19.20;66.70;;;;;;6320457;22;20007;-77
2021/06/01 10:23:29;;;;;;;1.90;1.75;;;19.20;66.80;;;;;;6293549;22;20011;-78
2021/06/01 10:25:55;;;;;;;1.83;1.50;;;19.20;66.70;;;;;;6310467;22;20018;-76
2021/06/01 10:28:33;;;;;;;1.52;1.33;;;19.20;66.60;;;;;;6320462;22;20030;-76
2021/06/01 10:31:00;;;;;;;2.45;1.63;;;19.20;66.70;;;;;;6320508;22;20088;-76
2021/06/01 10:33:34;;;;;;;2.05;1.65;;;19.20;66.60;;;;;;6309459;22;20015;-76
2021/06/01 10:36:27;;;;;;;;;;;19.20;66.60;;;;;;6321200;22;20022;-77
2021/06/01 10:50:26;;;;;;;1.98;1.48;;;19.20;66.50;;;;;;6316154;22;20295;-77
2021/06/01 10:53:20;;;;;;;1.73;1.33;;;19.30;66.50;;;;;;6310409;22;20090;-76
2021/06/01 10:55:49;;;;;;;2.10;1.33;;;19.20;66.50;;;;;;6320149;22;20007;-77
2021/06/01 10:58:21;;;;;;;1.55;1.40;;;19.20;66.50;;;;;;6320688;22;20708;-77
2021/06/01 11:03:19;;;;;;;1.30;1.10;;;19.20;66.50;;;;;;6320230;22;20266;-75
2021/06/01 11:05:57;;;;;;;1.73;1.60;;;19.20;66.40;;;;;;6320423;22;20034;-75
2021/06/01 11:08:44;;;;;;;1.58;1.48;;;19.20;66.40;;;;;;6320271;22;20011;-76
2021/06/01 11:11:27;;;;;;;1.65;1.35;;;19.20;66.40;;;;;;6320542;22;20038;-77
2021/06/01 11:13:55;;;;;;;1.92;1.38;;;19.30;66.40;;;;;;6309873;22;20022;-76
2021/06/01 11:16:21;;;;;;;1.48;1.25;;;19.30;66.40;;;;;;6310798;22;20037;-76
2021/06/01 11:18:59;;;;;;;1.55;1.35;;;19.30;66.40;;;;;;6320523;22;20042;-76
2021/06/01 11:35:49;;;;;;;1.35;1.20;;;19.20;66.40;;;;;;6320152;22;20018;-77
2021/06/01 11:38:26;;;;;;;1.48;1.27;;;19.20;66.40;;;;;;6285251;22;20037;-76
2021/06/01 11:41:04;;;;;;;1.75;1.58;;;19.20;66.30;;;;;;6309741;22;20019;-77
2021/06/01 11:43:31;;;;;;;1.55;1.20;;;19.20;66.30;;;;;;6320281;22;20034;-76
2021/06/01 11:51:47;;;;;;;1.73;1.35;;;19.20;66.30;;;;;;6320286;22;20018;-76
2021/06/01 11:54:16;;;;;;;1.30;1.20;;;19.20;66.30;;;;;;6309646;22;20043;-78
2021/06/01 12:18:58;;;;;;;1.20;1.10;;;19.20;66.30;;;;;;6322036;22;20023;-75
2021/06/01 12:21:33;;;;;;;2.38;1.48;;;19.20;66.30;;;;;;6322689;22;20018;-76
2021/06/01 12:24:15;;;;;;;1.40;1.23;;;19.20;66.30;;;;;;6321950;22;20431;-75
2021/06/01 12:32:29;;;;;;;1.90;1.48;;;19.20;66.20;;;;;;6321513;22;20388;-77
2021/06/01 13:08:41;;;;;;;1.42;1.17;;;19.30;66.40;;;;;;6321922;22;20007;-76
2021/06/01 13:19:47;;;;;;;1.35;1.23;;;19.30;66.50;;;;;;6321062;22;20036;-76
2021/06/01 13:30:41;;;;;;;1.55;1.20;;;19.30;66.90;;;;;;6320970;22;20094;-76
2021/06/01 13:38:44;;;;;;;2.17;1.30;;;19.30;67.70;;;;;;6320535;22;20408;-76
2021/06/01 13:46:42;;;;;;;1.80;1.42;;;19.30;67.20;;;;;;6320783;22;20102;-77
2021/06/01 13:49:34;;;;;;;1.33;1.15;;;19.30;67.20;;;;;;6320806;22;20019;-76
2021/06/01 13:58:15;;;;;;;2.03;1.45;;;19.30;67.40;;;;;;6309801;22;20015;-75
2021/06/01 14:09:41;;;;;;;1.50;1.35;;;19.40;67.60;;;;;;6216908;23;20013;-76
2021/06/01 15:09:46;;;;;;;2.00;1.60;;;19.50;69.10;;;;;;6320152;22;20062;-77
2021/06/01 15:29:13;;;;;;;2.85;1.80;;;19.50;69.20;;;;;;6320354;22;20044;-77
2021/06/01 16:13:15;;;;;;;2.00;1.70;;;19.60;69.60;;;;;;6311332;22;20015;-75
2021/06/01 17:05:03;;;;;;;2.83;2.22;;;20.00;70.20;;;;;;6311499;22;20470;-76
2021/06/01 17:13:03;;;;;;;2.63;1.60;;;20.10;70.20;;;;;;6311080;22;20018;-76
2021/06/01 17:15:29;;;;;;;2.65;1.88;;;20.10;70.30;;;;;;6310637;22;20007;-77
2021/06/01 17:18:06;;;;;;;2.75;2.10;;;20.10;70.10;;;;;;6320726;22;20339;-75
2021/06/01 17:36:52;;;;;;;2.72;2.00;;;20.20;69.90;;;;;;6320822;22;20017;-76
2021/06/01 17:39:18;;;;;;;2.60;2.08;;;20.20;69.90;;;;;;6310511;22;20045;-76
2021/06/01 17:41:47;;;;;;;2.97;2.33;;;20.30;69.80;;;;;;6310947;22;20011;-77
2021/06/01 17:44:13;;;;;;;2.45;2.13;;;20.20;69.70;;;;;;6320831;22;20068;-77
2021/06/01 17:46:43;;;;;;;2.67;2.20;;;20.20;69.80;;;;;;6321104;22;20008;-77
2021/06/01 17:49:09;;;;;;;2.75;2.25;;;20.20;69.60;;;;;;6310410;22;20011;-76
2021/06/01 17:51:36;;;;;;;2.38;1.92;;;20.20;69.60;;;;;;6310110;22;20021;-76
2021/06/01 17:54:03;;;;;;;2.38;1.98;;;20.20;69.50;;;;;;6320790;22;20006;-77
2021/06/01 17:56:30;;;;;;;2.70;1.95;;;20.20;69.40;;;;;;6321362;22;20082;-77
2021/06/01 17:58:58;;;;;;;2.22;2.03;;;20.20;69.40;;;;;;6320913;22;20046;-76
2021/06/01 18:01:27;;;;;;;2.33;1.70;;;20.20;69.50;;;;;;6320345;22;20008;-76
2021/06/01 18:04:02;;;;;;;2.25;1.90;;;20.20;69.50;;;;;;6320141;22;20018;-77
2021/06/01 18:06:35;;;;;;;3.22;2.13;;;20.20;69.40;;;;;;6311250;22;20011;-76
2021/06/01 19:06:04;;;;;;;6.47;4.40;;;20.00;65.20;;;;;;6320240;22;20078;-76
2021/06/01 19:29:19;;;;;;;7.40;4.30;;;19.80;63.90;;;;;;6320164;22;20007;-76
2021/06/01 19:50:59;;;;;;;5.72;4.03;;;19.70;63.50;;;;;;6312761;22;20011;-76
2021/06/01 19:53:28;;;;;;;6.40;4.72;;;19.70;63.50;;;;;;6309503;22;20019;-77
2021/06/01 19:55:54;;;;;;;6.18;4.00;;;19.60;63.50;;;;;;6319871;22;20041;-76
2021/06/01 19:58:20;;;;;;;7.93;4.35;;;19.60;63.60;;;;;;6320016;22;20069;-76
2021/06/01 20:00:46;;;;;;;6.82;4.28;;;19.60;63.60;;;;;;6320038;22;20319;-77
2021/06/01 20:03:14;;;;;;;5.88;3.90;;;19.60;63.40;;;;;;6320434;22;20035;-76
2021/06/01 20:05:40;;;;;;;5.32;3.85;;;19.60;63.40;;;;;;6320162;22;20007;-77
2021/06/01 20:08:11;;;;;;;5.65;3.88;;;19.60;63.40;;;;;;6319885;22;20018;-77
2021/06/01 20:10:37;;;;;;;6.20;4.35;;;19.60;63.40;;;;;;6293000;22;20008;-76
2021/06/01 20:13:03;;;;;;;6.43;4.22;;;19.50;64.00;;;;;;6319875;22;20057;-76
2021/06/01 20:15:38;;;;;;;4.80;4.18;;;19.50;63.30;;;;;;6308975;22;20417;-77
2021/06/01 20:18:06;;;;;;;4.63;3.47;;;19.50;63.30;;;;;;6292615;22;20398;-77
2021/06/01 20:20:38;;;;;;;7.60;4.10;;;19.50;63.30;;;;;;6319844;22;20015;-76
2021/06/01 20:23:06;;;;;;;6.63;3.75;;;19.50;63.30;;;;;;6268757;22;20038;-76
2021/06/01 20:25:32;;;;;;;7.78;4.05;;;19.40;63.30;;;;;;6321945;22;20414;-76
2021/06/01 20:28:02;;;;;;;10.68;4.45;;;19.50;63.10;;;;;;6322122;22;20099;-77